Time;durP1;ratioP1;P1;durP2;ratioP2;P2;SDS_P1;SDS_P2;PMS_P1;PMS_P2;Temp;Humidity;BMP_temperature;BMP_pressure;BME280_temperature;BME280_humidity;BME280_pressure;Samples;Min_cycle;Max_cycle;Signal;HPM_P1;HPM_P2
2023/07/21 00:01:03;;;;;;;5.68;3.20;;;15.50;99.90;;;;;;5032496;28;20057;-66
2023/07/21 00:03:30;;;;;;;4.47;3.25;;;15.50;99.90;;;;;;5032291;28;20049;-65
2023/07/21 00:05:57;;;;;;;6.80;3.90;;;15.60;99.90;;;;;;5018439;28;20046;-66
2023/07/21 00:08:29;;;;;;;4.97;3.75;;;15.60;99.90;;;;;;4995044;28;20050;-66
2023/07/21 00:10:57;;;;;;;6.63;3.70;;;15.50;99.90;;;;;;4995253;28;20053;-66
2023/07/21 00:13:24;;;;;;;6.30;3.72;;;15.50;99.90;;;;;;5012312;28;20418;-66
2023/07/21 00:15:52;;;;;;;6.07;3.53;;;15.50;99.90;;;;;;5024728;28;20108;-66
2023/07/21 00:18:19;;;;;;;7.03;3.92;;;15.50;99.90;;;;;;5014305;28;20474;-66
2023/07/21 00:20:47;;;;;;;6.30;3.80;;;15.50;99.90;;;;;;5031920;28;20045;-65
2023/07/21 00:23:16;;;;;;;4.85;3.55;;;15.40;99.90;;;;;;5031799;28;20057;-66
2023/07/21 00:25:45;;;;;;;4.90;3.80;;;15.50;99.90;;;;;;5020215;28;20053;-66
2023/07/21 00:28:13;;;;;;;5.95;4.00;;;15.40;99.90;;;;;;4978216;28;20057;-66
2023/07/21 00:30:40;;;;;;;4.82;3.70;;;15.40;99.90;;;;;;4979351;28;20054;-66
2023/07/21 00:33:06;;;;;;;6.18;4.03;;;15.40;99.90;;;;;;5012281;28;20050;-66
2023/07/21 00:35:34;;;;;;;5.07;4.07;;;15.40;99.90;;;;;;5030645;28;20408;-66
2023/07/21 00:38:03;;;;;;;7.75;4.10;;;15.40;99.90;;;;;;5051398;28;20059;-66
2023/07/21 00:40:37;;;;;;;6.65;4.07;;;15.40;99.90;;;;;;5034856;28;20060;-66
2023/07/21 00:43:04;;;;;;;5.70;3.85;;;15.40;99.90;;;;;;5013571;28;20416;-65
2023/07/21 00:45:34;;;;;;;4.55;3.60;;;15.40;99.90;;;;;;5032554;28;20053;-65
2023/07/21 00:48:04;;;;;;;5.03;3.88;;;15.40;99.90;;;;;;5031471;28;20111;-65
2023/07/21 00:50:30;;;;;;;7.32;4.07;;;15.30;99.90;;;;;;5031387;28;20450;-66
2023/07/21 00:52:58;;;;;;;6.25;4.25;;;15.30;99.90;;;;;;4997995;28;20462;-66
2023/07/21 00:55:25;;;;;;;4.38;3.50;;;15.30;99.90;;;;;;5040884;28;20488;-66
2023/07/21 00:57:52;;;;;;;6.30;3.97;;;15.20;99.90;;;;;;5033620;28;20056;-65
2023/07/21 01:00:19;;;;;;;5.53;4.07;;;15.20;99.90;;;;;;5034008;28;20052;-65
2023/07/21 01:02:49;;;;;;;7.00;3.90;;;15.20;99.90;;;;;;5018766;28;20064;-66
2023/07/21 01:05:17;;;;;;;4.55;3.72;;;15.20;99.90;;;;;;5033820;28;20037;-66
2023/07/21 01:07:44;;;;;;;6.28;3.85;;;15.20;99.90;;;;;;5033237;28;20052;-65
2023/07/21 01:10:11;;;;;;;7.18;3.60;;;15.20;99.90;;;;;;5033987;28;20049;-65
2023/07/21 01:12:38;;;;;;;6.05;3.42;;;15.10;99.90;;;;;;5051385;28;20068;-65
2023/07/21 01:15:05;;;;;;;5.72;3.65;;;15.10;99.90;;;;;;5033666;28;20065;-65
2023/07/21 01:17:32;;;;;;;5.85;3.58;;;15.10;99.90;;;;;;5051346;28;20053;-65
2023/07/21 01:20:00;;;;;;;6.22;3.85;;;15.10;99.90;;;;;;5050444;28;20056;-65
2023/07/21 01:22:36;;;;;;;6.03;3.78;;;15.10;99.90;;;;;;5051361;28;20045;-66
2023/07/21 01:25:11;;;;;;;5.43;3.70;;;15.10;99.90;;;;;;4997716;28;20045;-66
2023/07/21 01:27:41;;;;;;;5.90;3.60;;;15.10;99.90;;;;;;5031008;28;20395;-65
2023/07/21 01:30:14;;;;;;;5.95;3.50;;;15.10;99.90;;;;;;5030194;28;20351;-66
2023/07/21 01:32:42;;;;;;;5.72;3.85;;;15.10;99.90;;;;;;5031294;28;20042;-65
2023/07/21 01:35:11;;;;;;;5.28;3.47;;;15.10;99.90;;;;;;5031488;28;20073;-66
2023/07/21 01:37:40;;;;;;;5.30;3.22;;;15.20;99.90;;;;;;5013879;28;20112;-66
2023/07/21 01:40:09;;;;;;;4.45;3.78;;;15.20;99.90;;;;;;5013909;28;20435;-66
2023/07/21 01:42:36;;;;;;;6.28;3.85;;;15.20;99.90;;;;;;5013700;28;20083;-66
2023/07/21 01:45:03;;;;;;;6.63;3.80;;;15.20;99.90;;;;;;5019836;28;20052;-66
2023/07/21 01:47:32;;;;;;;5.50;3.53;;;15.30;99.90;;;;;;5051079;28;20045;-65
2023/07/21 01:49:59;;;;;;;4.40;3.47;;;15.30;99.90;;;;;;5050872;28;20056;-65
2023/07/21 01:52:28;;;;;;;4.97;3.15;;;15.40;99.90;;;;;;5051239;28;20115;-66
2023/07/21 01:55:07;;;;;;;6.82;3.92;;;15.40;99.90;;;;;;5050320;28;20049;-66
2023/07/21 01:57:46;;;;;;;5.60;3.60;;;15.50;99.90;;;;;;5054377;28;20049;-64
2023/07/21 02:00:14;;;;;;;7.30;3.90;;;15.50;99.90;;;;;;5037460;28;20480;-66
2023/07/21 02:02:44;;;;;;;4.63;3.78;;;15.40;99.90;;;;;;5036662;28;20465;-65
2023/07/21 02:05:22;;;;;;;5.78;3.53;;;15.30;99.90;;;;;;5047509;28;20052;-66
2023/07/21 02:07:50;;;;;;;6.43;3.95;;;15.30;99.90;;;;;;5034169;28;20115;-65
2023/07/21 02:10:17;;;;;;;5.32;3.58;;;15.30;99.90;;;;;;5016995;28;20054;-65
2023/07/21 02:12:43;;;;;;;5.72;3.83;;;15.30;99.90;;;;;;5034522;28;20051;-65
2023/07/21 02:15:10;;;;;;;5.30;3.78;;;15.30;99.90;;;;;;5040675;28;20045;-65
2023/07/21 02:17:37;;;;;;;4.45;3.80;;;15.30;99.90;;;;;;5053725;28;20688;-65
2023/07/21 02:20:07;;;;;;;5.28;3.90;;;15.30;99.90;;;;;;5054210;28;20049;-66
2023/07/21 02:22:48;;;;;;;5.25;3.67;;;15.40;99.90;;;;;;5053829;28;20370;-66
2023/07/21 02:25:15;;;;;;;5.78;3.70;;;15.40;99.90;;;;;;5036292;28;20449;-66
2023/07/21 02:27:43;;;;;;;5.97;4.20;;;15.40;99.90;;;;;;5053776;28;20051;-66
2023/07/21 02:30:10;;;;;;;4.72;4.15;;;15.40;99.90;;;;;;5036722;28;20055;-66
2023/07/21 02:32:36;;;;;;;6.57;4.38;;;15.40;99.90;;;;;;5003936;28;20053;-65
2023/07/21 02:35:05;;;;;;;6.18;4.10;;;15.40;99.90;;;;;;5052883;28;20048;-66
2023/07/21 02:37:31;;;;;;;5.75;4.03;;;15.50;99.90;;;;;;5020270;28;20351;-66
2023/07/21 02:39:57;;;;;;;6.22;4.35;;;15.40;99.90;;;;;;5054125;28;20049;-66
2023/07/21 02:42:24;;;;;;;5.07;4.15;;;15.40;99.90;;;;;;5054047;28;20106;-66
2023/07/21 02:44:50;;;;;;;8.88;4.90;;;15.40;99.90;;;;;;5032663;28;20050;-66
2023/07/21 02:47:17;;;;;;;6.20;3.90;;;15.40;99.90;;;;;;5033759;28;20056;-66
2023/07/21 02:49:43;;;;;;;6.00;4.40;;;15.40;99.90;;;;;;5032882;28;20425;-66
2023/07/21 02:52:10;;;;;;;6.10;4.63;;;15.40;99.90;;;;;;5016533;28;20060;-65
2023/07/21 02:54:37;;;;;;;6.47;4.55;;;15.40;99.90;;;;;;5034942;28;20119;-66
2023/07/21 02:57:03;;;;;;;6.93;5.22;;;15.40;99.90;;;;;;5036204;28;20045;-65
2023/07/21 02:59:29;;;;;;;5.75;4.93;;;15.30;99.90;;;;;;5052852;28;20399;-65
2023/07/21 03:01:56;;;;;;;6.43;5.32;;;15.30;99.90;;;;;;5053454;28;20452;-65
2023/07/21 03:04:25;;;;;;;6.50;5.28;;;15.20;99.90;;;;;;5053263;28;20040;-65
2023/07/21 03:06:52;;;;;;;7.25;5.68;;;15.20;99.90;;;;;;5053206;28;20041;-65
2023/07/21 03:09:19;;;;;;;7.97;5.15;;;15.20;99.90;;;;;;5052844;28;20127;-66
2023/07/21 03:11:46;;;;;;;6.88;4.78;;;15.10;99.90;;;;;;5036033;28;20052;-64
2023/07/21 03:14:12;;;;;;;7.90;5.13;;;15.10;99.90;;;;;;5053310;28;20045;-65
2023/07/21 03:16:40;;;;;;;7.93;5.57;;;15.00;99.90;;;;;;5052248;28;20041;-65
2023/07/21 03:19:07;;;;;;;5.70;5.10;;;15.00;99.90;;;;;;5052907;28;20109;-65
2023/07/21 03:21:33;;;;;;;6.15;5.25;;;15.00;99.90;;;;;;5053125;28;20503;-65
2023/07/21 03:23:59;;;;;;;7.57;4.88;;;15.00;99.90;;;;;;5053049;28;20053;-66
2023/07/21 03:26:29;;;;;;;6.90;4.90;;;15.00;99.90;;;;;;5036805;28;20045;-65
2023/07/21 03:28:55;;;;;;;7.50;5.68;;;15.00;99.90;;;;;;5033036;28;20064;-65
2023/07/21 03:31:22;;;;;;;6.63;5.10;;;15.00;99.90;;;;;;5033428;28;20110;-66
2023/07/21 03:33:48;;;;;;;6.60;5.00;;;14.90;99.90;;;;;;5033144;28;20049;-65
2023/07/21 03:36:14;;;;;;;6.57;4.85;;;14.90;99.90;;;;;;5046829;28;20049;-66
2023/07/21 03:38:41;;;;;;;6.35;5.07;;;14.90;99.90;;;;;;5034701;28;20465;-66
2023/07/21 03:41:10;;;;;;;6.53;5.50;;;14.90;99.90;;;;;;5019503;28;20053;-65
2023/07/21 03:43:37;;;;;;;5.82;4.90;;;14.90;99.90;;;;;;5052868;28;20049;-65
2023/07/21 03:46:10;;;;;;;7.18;5.07;;;14.90;99.90;;;;;;5035972;28;20140;-65
2023/07/21 03:48:36;;;;;;;6.10;5.30;;;15.00;99.90;;;;;;5034861;28;20126;-66
2023/07/21 03:51:05;;;;;;;6.20;4.93;;;14.90;99.90;;;;;;5035159;28;20036;-65
2023/07/21 03:53:32;;;;;;;6.85;4.65;;;15.00;99.90;;;;;;5034528;28;20048;-66
2023/07/21 03:55:59;;;;;;;7.53;5.55;;;15.00;99.90;;;;;;5051505;28;20048;-64
2023/07/21 03:58:26;;;;;;;7.20;5.25;;;15.00;99.90;;;;;;5052237;28;20059;-66
2023/07/21 04:00:55;;;;;;;7.65;5.35;;;14.90;99.90;;;;;;5035454;28;20053;-65
2023/07/21 04:03:24;;;;;;;7.93;5.65;;;14.90;99.90;;;;;;5052270;28;20049;-65
2023/07/21 04:05:54;;;;;;;7.50;5.28;;;15.00;99.90;;;;;;5040789;28;20045;-66
2023/07/21 04:08:20;;;;;;;6.25;4.65;;;15.10;99.90;;;;;;4998454;28;20056;-65
2023/07/21 04:10:49;;;;;;;6.18;5.05;;;15.10;99.90;;;;;;4998725;28;20052;-64
2023/07/21 04:13:15;;;;;;;7.03;5.65;;;15.10;99.90;;;;;;5032252;28;20099;-65
2023/07/21 04:15:41;;;;;;;6.93;4.40;;;15.10;99.90;;;;;;5042285;28;20053;-64
2023/07/21 04:18:07;;;;;;;8.05;5.20;;;15.10;99.90;;;;;;5051637;28;20083;-64
2023/07/21 04:20:34;;;;;;;7.10;4.97;;;15.10;99.90;;;;;;5052561;28;20059;-65
2023/07/21 04:23:00;;;;;;;6.82;5.13;;;15.20;99.90;;;;;;5052350;28;20052;-66
2023/07/21 04:25:26;;;;;;;7.28;5.03;;;15.20;99.90;;;;;;5052124;28;20075;-64
2023/07/21 04:27:54;;;;;;;8.10;5.20;;;15.20;99.90;;;;;;5034304;28;20045;-64
2023/07/21 04:30:22;;;;;;;8.70;5.13;;;15.20;99.90;;;;;;5052538;28;20049;-65
2023/07/21 04:32:48;;;;;;;8.90;5.50;;;15.30;99.90;;;;;;5052455;28;20053;-65
2023/07/21 04:35:16;;;;;;;5.22;4.70;;;15.40;99.90;;;;;;5045816;28;20059;-66
2023/07/21 04:37:44;;;;;;;8.07;5.30;;;15.40;99.90;;;;;;5014689;28;20072;-66
2023/07/21 04:40:11;;;;;;;8.05;5.30;;;15.60;99.90;;;;;;5014995;28;20136;-65
2023/07/21 04:42:38;;;;;;;8.10;5.82;;;15.60;99.90;;;;;;5015060;28;20107;-66
2023/07/21 04:45:06;;;;;;;6.50;4.82;;;15.60;99.90;;;;;;5019875;28;20045;-64
2023/07/21 04:47:32;;;;;;;8.63;5.03;;;15.60;99.90;;;;;;5034257;28;20505;-64
2023/07/21 04:49:59;;;;;;;9.98;5.57;;;15.60;99.90;;;;;;5052255;28;20198;-66
2023/07/21 04:52:26;;;;;;;6.78;5.22;;;15.60;99.90;;;;;;5052055;28;20064;-65
2023/07/21 04:54:52;;;;;;;7.47;5.15;;;15.70;99.90;;;;;;5033304;28;20056;-63
2023/07/21 04:57:20;;;;;;;7.85;5.63;;;15.80;99.90;;;;;;5034206;28;20049;-64
2023/07/21 04:59:46;;;;;;;6.97;5.28;;;16.20;99.90;;;;;;5018431;28;20049;-65
2023/07/21 05:02:13;;;;;;;6.47;5.03;;;16.50;99.90;;;;;;5034488;28;20044;-66
2023/07/21 05:04:39;;;;;;;8.40;5.70;;;16.80;99.90;;;;;;5050832;28;20060;-66
2023/07/21 05:07:05;;;;;;;7.50;5.07;;;17.00;99.90;;;;;;5050924;28;20056;-65
2023/07/21 05:09:33;;;;;;;8.13;4.80;;;17.20;99.90;;;;;;5023419;28;20045;-64
2023/07/21 05:12:01;;;;;;;8.35;5.10;;;17.40;99.90;;;;;;5054120;28;20347;-66
2023/07/21 05:14:28;;;;;;;7.00;4.95;;;18.00;99.90;;;;;;5034318;28;20053;-64
2023/07/21 05:16:55;;;;;;;8.30;5.70;;;18.20;99.90;;;;;;5047746;28;20063;-64
2023/07/21 05:19:21;;;;;;;5.95;4.93;;;18.30;99.90;;;;;;5051629;28;20312;-64
2023/07/21 05:21:53;;;;;;;8.25;5.10;;;18.30;99.90;;;;;;5038652;28;20126;-66
2023/07/21 05:24:20;;;;;;;11.70;5.13;;;18.40;99.90;;;;;;5058841;28;20114;-65
2023/07/21 05:26:46;;;;;;;7.53;5.38;;;18.60;99.90;;;;;;5053016;28;20095;-65
2023/07/21 05:29:12;;;;;;;7.68;5.47;;;18.70;99.90;;;;;;5033896;28;20056;-66
2023/07/21 05:31:39;;;;;;;7.78;5.60;;;18.70;99.90;;;;;;5054725;28;20420;-66
2023/07/21 05:34:07;;;;;;;7.82;4.80;;;19.00;99.90;;;;;;5054144;28;20063;-66
2023/07/21 05:36:34;;;;;;;7.68;4.78;;;19.10;99.90;;;;;;5050281;28;20057;-66
2023/07/21 05:39:01;;;;;;;11.18;5.00;;;19.30;99.90;;;;;;5054602;28;20107;-67
2023/07/21 05:41:27;;;;;;;7.53;5.07;;;19.90;99.90;;;;;;5037484;28;20416;-67
2023/07/21 05:43:53;;;;;;;8.80;5.55;;;20.60;99.90;;;;;;5037455;28;20461;-65
2023/07/21 05:46:19;;;;;;;10.30;5.03;;;21.40;99.90;;;;;;5040167;28;20123;-66
2023/07/21 05:48:46;;;;;;;8.70;5.10;;;22.10;99.90;;;;;;5031142;28;20052;-66
2023/07/21 05:51:13;;;;;;;8.73;5.00;;;22.60;99.90;;;;;;5055094;28;20053;-67
2023/07/21 05:53:54;;;;;;;8.73;5.00;;;22.80;99.90;;;;;;5052994;28;20044;-66
2023/07/21 05:56:20;;;;;;;8.40;4.93;;;23.10;99.90;;;;;;5039149;28;20080;-66
2023/07/21 05:58:46;;;;;;;7.25;4.18;;;23.50;99.90;;;;;;5053660;28;20045;-66
2023/07/21 06:01:13;;;;;;;6.50;4.15;;;24.00;99.90;;;;;;5054155;28;20049;-66
2023/07/21 06:03:39;;;;;;;7.50;3.92;;;24.40;99.90;;;;;;5037002;28;20044;-66
2023/07/21 06:06:06;;;;;;;4.85;3.75;;;24.80;99.90;;;;;;5035752;28;20048;-67
2023/07/21 06:08:34;;;;;;;4.82;3.75;;;25.10;99.90;;;;;;5036359;28;20060;-67
2023/07/21 06:11:02;;;;;;;7.30;4.20;;;25.20;99.70;;;;;;5054254;28;20049;-68
2023/07/21 06:13:29;;;;;;;6.32;3.83;;;25.30;99.60;;;;;;5036154;28;20045;-67
2023/07/21 06:15:56;;;;;;;4.20;3.55;;;25.40;99.10;;;;;;5050004;28;20056;-67
2023/07/21 06:18:22;;;;;;;11.63;6.07;;;25.70;98.50;;;;;;5051984;28;20048;-68
2023/07/21 06:20:55;;;;;;;9.52;4.50;;;25.20;98.20;;;;;;5052088;28;20045;-67
2023/07/21 06:23:22;;;;;;;10.43;4.63;;;25.10;97.90;;;;;;5052096;28;20045;-66
2023/07/21 06:25:48;;;;;;;10.43;4.40;;;25.20;98.70;;;;;;5049321;28;20072;-66
2023/07/21 06:28:15;;;;;;;12.43;4.63;;;25.10;98.50;;;;;;5052067;28;20040;-66
2023/07/21 06:30:41;;;;;;;12.35;4.40;;;25.40;98.50;;;;;;5048880;28;20037;-67
2023/07/21 06:33:07;;;;;;;5.45;3.50;;;25.70;98.20;;;;;;5053926;28;20049;-66
2023/07/21 06:35:39;;;;;;;6.47;3.53;;;25.90;98.20;;;;;;5046272;28;20053;-66
2023/07/21 06:38:07;;;;;;;6.95;4.20;;;25.80;96.60;;;;;;5034312;28;20060;-66
2023/07/21 06:40:33;;;;;;;5.82;3.35;;;25.70;97.70;;;;;;5052487;28;20412;-67
2023/07/21 06:43:00;;;;;;;5.45;2.80;;;25.90;97.30;;;;;;5036069;28;20052;-66
2023/07/21 06:45:26;;;;;;;5.28;3.13;;;26.30;96.50;;;;;;5047913;28;20057;-66
2023/07/21 06:47:52;;;;;;;9.45;3.10;;;26.30;96.70;;;;;;5042147;28;20363;-67
2023/07/21 06:50:18;;;;;;;3.97;3.20;;;26.90;96.50;;;;;;5054213;28;20053;-66
2023/07/21 06:52:46;;;;;;;4.47;2.90;;;27.00;96.10;;;;;;5054437;28;20106;-67
2023/07/21 06:55:12;;;;;;;7.35;3.22;;;27.10;96.20;;;;;;5049808;28;20107;-65
2023/07/21 06:57:38;;;;;;;5.50;2.95;;;27.50;96.10;;;;;;5034144;28;20403;-66
2023/07/21 07:00:06;;;;;;;5.10;2.88;;;27.40;95.80;;;;;;5048801;28;20045;-66
2023/07/21 07:02:33;;;;;;;1.80;1.38;;;27.30;95.40;;;;;;5054190;28;20045;-66
2023/07/21 07:05:03;;;;;;;4.82;2.15;;;27.00;95.40;;;;;;5047481;28;20351;-66
2023/07/21 07:07:30;;;;;;;6.28;2.13;;;26.90;94.90;;;;;;5053550;28;20102;-67
2023/07/21 07:09:57;;;;;;;3.90;2.03;;;26.50;95.40;;;;;;5036609;28;20049;-67
2023/07/21 07:12:23;;;;;;;6.53;2.85;;;25.90;95.70;;;;;;5054241;28;20377;-67
2023/07/21 07:14:49;;;;;;;4.43;2.63;;;25.10;96.40;;;;;;5052564;28;20045;-67
2023/07/21 07:17:15;;;;;;;5.10;2.80;;;24.70;97.00;;;;;;5033118;28;20086;-66
2023/07/21 07:19:42;;;;;;;5.07;2.60;;;24.40;97.40;;;;;;5016325;28;20050;-66
2023/07/21 07:22:09;;;;;;;5.80;2.63;;;24.60;97.50;;;;;;5034255;28;20045;-66
2023/07/21 07:24:35;;;;;;;4.65;2.65;;;24.60;97.50;;;;;;5062444;28;20051;-66
2023/07/21 07:27:01;;;;;;;3.80;2.50;;;24.20;97.80;;;;;;5059254;28;20090;-66
2023/07/21 07:29:28;;;;;;;6.88;2.33;;;24.30;97.90;;;;;;5052911;28;20458;-66
2023/07/21 07:31:55;;;;;;;5.70;2.78;;;24.20;98.10;;;;;;5035621;28;20428;-67
2023/07/21 07:34:21;;;;;;;4.45;2.50;;;23.60;98.30;;;;;;5035718;28;20140;-68
2023/07/21 07:37:02;;;;;;;4.68;2.38;;;23.60;98.50;;;;;;5050677;28;20497;-68
2023/07/21 07:39:30;;;;;;;5.13;2.30;;;23.30;98.80;;;;;;5041715;28;20049;-67
2023/07/21 07:41:56;;;;;;;3.20;2.20;;;23.20;98.70;;;;;;5020875;28;20114;-68
2023/07/21 07:44:22;;;;;;;3.95;2.30;;;23.30;98.90;;;;;;5053334;28;20057;-67
2023/07/21 07:46:48;;;;;;;3.60;2.40;;;23.40;98.70;;;;;;5052448;28;20056;-67
2023/07/21 07:49:14;;;;;;;4.25;2.80;;;23.60;98.80;;;;;;5052414;28;20388;-68
2023/07/21 07:51:41;;;;;;;4.55;2.78;;;23.70;98.60;;;;;;5053060;28;20094;-67
2023/07/21 07:54:08;;;;;;;5.70;3.20;;;23.90;98.50;;;;;;5052213;28;20171;-68
2023/07/21 07:56:34;;;;;;;3.65;2.65;;;23.80;98.60;;;;;;4999030;28;20053;-68
2023/07/21 07:59:00;;;;;;;4.43;2.90;;;23.60;98.80;;;;;;5032696;28;20068;-67
2023/07/21 08:01:26;;;;;;;3.83;2.65;;;23.10;99.00;;;;;;5033294;28;20123;-68
2023/07/21 08:03:53;;;;;;;3.50;3.20;;;23.00;98.90;;;;;;5033176;28;20053;-68
2023/07/21 08:06:22;;;;;;;4.18;3.53;;;22.80;99.10;;;;;;5034948;28;20376;-67
2023/07/21 08:08:48;;;;;;;4.35;3.58;;;22.80;99.40;;;;;;5052483;28;20060;-68
2023/07/21 08:11:15;;;;;;;4.70;3.28;;;22.60;99.40;;;;;;5019191;28;20045;-67
2023/07/21 08:13:42;;;;;;;5.15;3.13;;;22.90;99.20;;;;;;5035267;28;20067;-68
2023/07/21 08:16:13;;;;;;;3.88;2.30;;;22.70;99.20;;;;;;5018496;28;20049;-69
2023/07/21 08:18:40;;;;;;;4.18;2.90;;;22.70;98.30;;;;;;5052405;28;20056;-68
2023/07/21 08:21:24;;;;;;;4.43;3.33;;;22.30;98.80;;;;;;5052422;28;20056;-65
2023/07/21 08:23:51;;;;;;;6.32;4.13;;;22.40;99.90;;;;;;5022923;28;20055;-68
2023/07/21 08:26:18;;;;;;;4.80;3.55;;;22.40;99.90;;;;;;5039317;28;20045;-67
2023/07/21 08:28:45;;;;;;;5.43;3.58;;;22.60;99.90;;;;;;5034628;28;20041;-68
2023/07/21 08:31:11;;;;;;;4.70;3.20;;;22.90;99.70;;;;;;5052653;28;20049;-68
2023/07/21 08:33:39;;;;;;;3.63;2.65;;;22.80;99.70;;;;;;5034725;28;20052;-68
2023/07/21 08:36:05;;;;;;;4.43;2.53;;;22.60;98.70;;;;;;5051230;28;20064;-68
2023/07/21 08:38:35;;;;;;;2.28;1.63;;;22.30;98.20;;;;;;5048081;28;20053;-67
2023/07/21 08:41:08;;;;;;;3.30;1.75;;;22.00;98.10;;;;;;5015001;28;20072;-67
2023/07/21 08:43:34;;;;;;;5.70;2.00;;;22.10;97.80;;;;;;5032624;28;20053;-68
2023/07/21 08:46:03;;;;;;;5.00;1.60;;;22.10;98.10;;;;;;5025249;28;20071;-67
2023/07/21 08:48:30;;;;;;;6.85;1.52;;;22.00;97.90;;;;;;5051902;28;20045;-67
2023/07/21 08:50:57;;;;;;;2.25;1.45;;;21.90;97.30;;;;;;5034472;28;20073;-67
2023/07/21 08:53:24;;;;;;;2.63;1.45;;;21.90;97.30;;;;;;5052587;28;20060;-68
2023/07/21 08:55:53;;;;;;;2.97;1.75;;;21.90;96.80;;;;;;5043052;28;20046;-67
2023/07/21 08:58:21;;;;;;;2.60;1.52;;;21.90;97.40;;;;;;5014193;28;20057;-67
2023/07/21 09:01:04;;;;;;;3.65;2.00;;;21.90;97.60;;;;;;5032456;28;20057;-68
2023/07/21 09:03:30;;;;;;;3.42;2.05;;;22.00;97.90;;;;;;5032546;28;20054;-67
2023/07/21 09:05:58;;;;;;;3.90;2.33;;;22.00;98.00;;;;;;5044691;28;20535;-67
2023/07/21 09:08:29;;;;;;;4.95;2.08;;;22.10;98.10;;;;;;5055338;28;20377;-67
2023/07/21 09:11:00;;;;;;;3.90;2.20;;;22.00;98.20;;;;;;5056277;28;20442;-67
2023/07/21 09:13:28;;;;;;;4.25;2.40;;;22.20;98.10;;;;;;5055943;28;20122;-67
2023/07/21 09:15:56;;;;;;;3.25;2.30;;;22.30;98.00;;;;;;5055125;28;20059;-66
2023/07/21 09:18:35;;;;;;;6.65;2.63;;;22.40;98.10;;;;;;5055663;28;20057;-66
2023/07/21 09:21:01;;;;;;;3.78;2.30;;;22.50;98.20;;;;;;5056720;28;20057;-66
2023/07/21 09:23:29;;;;;;;3.88;2.50;;;22.70;98.30;;;;;;5056251;28;20053;-66
2023/07/21 09:25:57;;;;;;;4.30;3.30;;;22.70;98.40;;;;;;5037982;28;20060;-67
2023/07/21 09:28:44;;;;;;;3.53;3.20;;;22.70;98.40;;;;;;5055716;28;20582;-67
2023/07/21 09:31:12;;;;;;;3.33;2.65;;;22.70;98.30;;;;;;5038558;28;20107;-66
2023/07/21 09:33:41;;;;;;;3.70;2.90;;;22.80;98.30;;;;;;5055956;28;20048;-66
2023/07/21 09:36:10;;;;;;;4.30;3.00;;;22.80;98.20;;;;;;5054303;28;20049;-67
2023/07/21 09:38:37;;;;;;;4.72;2.33;;;23.20;98.10;;;;;;5050835;28;20045;-68
2023/07/21 09:41:09;;;;;;;2.75;2.38;;;23.20;98.30;;;;;;5018391;28;20053;-68
2023/07/21 09:43:36;;;;;;;2.63;2.13;;;22.90;98.20;;;;;;5018526;28;20049;-68
2023/07/21 09:46:05;;;;;;;3.55;1.90;;;22.70;98.60;;;;;;5028785;28;20446;-67
2023/07/21 09:48:32;;;;;;;2.80;1.73;;;22.50;98.60;;;;;;5055279;28;20152;-68
2023/07/21 09:51:00;;;;;;;2.60;1.70;;;22.10;98.60;;;;;;5055565;28;20071;-67
2023/07/21 09:53:45;;;;;;;3.15;2.10;;;22.10;98.80;;;;;;5055415;28;20057;-67
2023/07/21 09:56:13;;;;;;;3.53;2.10;;;22.00;98.60;;;;;;5037511;28;20056;-68
2023/07/21 09:58:51;;;;;;;2.47;1.98;;;22.00;98.90;;;;;;5054899;28;20465;-67
2023/07/21 10:01:18;;;;;;;2.47;1.50;;;22.20;98.70;;;;;;5055617;28;20053;-66
2023/07/21 10:03:45;;;;;;;2.00;1.60;;;22.20;98.50;;;;;;5055372;28;20063;-67
2023/07/21 10:06:12;;;;;;;3.15;1.45;;;22.10;98.10;;;;;;5020658;28;20041;-67
2023/07/21 10:08:39;;;;;;;2.83;1.92;;;22.20;98.40;;;;;;5054451;28;20346;-67
2023/07/21 10:11:07;;;;;;;2.28;1.40;;;22.10;98.10;;;;;;5054931;28;20462;-67
2023/07/21 10:13:38;;;;;;;2.92;2.00;;;22.10;97.60;;;;;;5054816;28;20454;-67
2023/07/21 10:16:09;;;;;;;5.22;1.58;;;21.90;97.70;;;;;;5036157;28;20055;-66
2023/07/21 10:18:36;;;;;;;1.98;1.33;;;22.00;96.70;;;;;;5036487;28;20041;-67
2023/07/21 10:21:03;;;;;;;3.03;1.65;;;22.10;97.10;;;;;;5054640;28;20520;-67
2023/07/21 10:23:34;;;;;;;3.20;1.70;;;22.30;97.40;;;;;;5020915;28;20075;-67
2023/07/21 10:26:08;;;;;;;2.55;2.00;;;22.40;97.50;;;;;;5044770;28;20428;-67
2023/07/21 10:28:44;;;;;;;3.67;1.60;;;22.50;97.20;;;;;;5034539;28;20045;-67
2023/07/21 10:31:32;;;;;;;2.30;1.58;;;22.50;97.00;;;;;;5034762;28;20431;-67
2023/07/21 10:34:07;;;;;;;4.03;2.10;;;22.70;97.20;;;;;;5034920;28;20354;-67
2023/07/21 10:36:44;;;;;;;2.25;1.80;;;22.70;97.10;;;;;;5047814;28;20067;-67
2023/07/21 10:39:11;;;;;;;2.10;1.58;;;22.70;97.00;;;;;;5045389;28;20049;-68
2023/07/21 10:41:41;;;;;;;2.35;1.60;;;23.00;97.10;;;;;;5034641;28;20053;-67
2023/07/21 10:44:11;;;;;;;2.45;1.73;;;23.20;97.00;;;;;;5044470;28;20049;-67
2023/07/21 10:46:42;;;;;;;2.78;1.77;;;23.50;96.60;;;;;;5039072;28;20474;-67
2023/07/21 10:49:10;;;;;;;2.80;1.50;;;23.40;96.00;;;;;;5046963;28;20041;-67
2023/07/21 10:51:44;;;;;;;3.47;1.83;;;23.40;96.40;;;;;;5037095;28;20044;-67
2023/07/21 10:54:11;;;;;;;2.80;1.90;;;23.20;96.00;;;;;;5037012;28;20056;-67
2023/07/21 10:56:43;;;;;;;2.60;1.92;;;23.20;96.50;;;;;;5053073;28;20052;-67
2023/07/21 10:59:10;;;;;;;2.22;1.60;;;23.20;96.50;;;;;;5054402;28;20045;-66
2023/07/21 11:01:47;;;;;;;3.03;1.80;;;23.50;96.10;;;;;;5054478;28;20049;-66
2023/07/21 11:04:14;;;;;;;2.80;1.75;;;23.50;96.40;;;;;;5037335;28;20450;-66
2023/07/21 11:06:50;;;;;;;2.92;1.67;;;23.60;96.00;;;;;;5038957;28;20397;-67
2023/07/21 11:09:17;;;;;;;1.90;1.42;;;23.60;95.60;;;;;;5016717;28;20060;-67
2023/07/21 11:11:46;;;;;;;2.75;1.30;;;23.50;95.20;;;;;;5034367;28;20045;-67
2023/07/21 11:14:18;;;;;;;2.38;1.60;;;23.60;94.70;;;;;;5016770;28;20057;-67
2023/07/21 11:17:00;;;;;;;2.60;1.50;;;23.80;95.20;;;;;;5016077;28;20088;-68
2023/07/21 11:19:29;;;;;;;2.50;1.70;;;23.90;94.90;;;;;;5032818;28;20061;-67
2023/07/21 11:21:56;;;;;;;3.05;1.70;;;23.60;94.30;;;;;;5033669;28;20049;-68
2023/07/21 11:24:25;;;;;;;2.90;1.55;;;23.90;94.50;;;;;;5016620;28;20049;-67
2023/07/21 11:27:01;;;;;;;3.45;1.52;;;24.10;94.40;;;;;;5034021;28;20387;-67
2023/07/21 11:29:30;;;;;;;3.08;1.50;;;24.20;93.90;;;;;;5053986;28;20053;-67
2023/07/21 11:31:56;;;;;;;8.02;1.90;;;24.30;93.20;;;;;;5054146;28;20064;-67
2023/07/21 11:34:28;;;;;;;3.72;1.30;;;24.40;94.00;;;;;;5053267;28;20072;-67
2023/07/21 11:36:58;;;;;;;2.58;1.42;;;24.30;92.60;;;;;;5031924;28;20053;-67
2023/07/21 11:39:27;;;;;;;1.63;1.10;;;24.30;93.10;;;;;;5022818;28;20107;-67
2023/07/21 11:41:55;;;;;;;2.85;1.42;;;24.50;93.20;;;;;;5014375;28;20054;-67
2023/07/21 11:44:30;;;;;;;3.08;1.50;;;24.50;93.20;;;;;;5013753;28;20054;-67
2023/07/21 11:47:09;;;;;;;2.38;1.33;;;24.30;92.60;;;;;;5021382;28;20112;-67
2023/07/21 11:49:46;;;;;;;2.28;1.42;;;24.50;93.30;;;;;;5027161;28;20196;-67
2023/07/21 11:52:24;;;;;;;3.25;1.50;;;24.10;92.90;;;;;;5033599;28;20053;-66
2023/07/21 11:54:51;;;;;;;2.30;1.50;;;23.90;92.90;;;;;;5032897;28;20053;-67
2023/07/21 11:57:18;;;;;;;2.05;1.50;;;23.90;93.30;;;;;;5032767;28;20049;-66
2023/07/21 11:59:44;;;;;;;2.13;1.50;;;23.80;93.70;;;;;;5033463;28;20464;-66
2023/07/21 12:02:14;;;;;;;3.85;1.70;;;23.70;94.30;;;;;;5033425;28;20049;-66
2023/07/21 12:04:41;;;;;;;3.10;1.60;;;24.00;94.20;;;;;;5033108;28;20061;-67
2023/07/21 12:07:08;;;;;;;3.10;1.50;;;23.90;94.10;;;;;;5031755;28;20111;-66
2023/07/21 12:09:35;;;;;;;2.63;1.60;;;24.00;94.20;;;;;;5033228;28;20045;-66
2023/07/21 12:12:01;;;;;;;4.32;1.92;;;24.10;94.20;;;;;;5033303;28;20060;-66
2023/07/21 12:14:29;;;;;;;2.55;2.15;;;24.20;94.00;;;;;;5033069;28;20057;-67
2023/07/21 12:16:56;;;;;;;6.68;2.33;;;24.00;94.20;;;;;;5016616;28;20045;-66
2023/07/21 12:19:26;;;;;;;3.10;2.33;;;23.90;94.60;;;;;;5013182;28;20050;-66
2023/07/21 12:21:54;;;;;;;3.92;1.85;;;24.00;94.60;;;;;;5013453;28;20109;-66
2023/07/21 12:24:21;;;;;;;4.13;2.05;;;23.90;94.30;;;;;;5026131;28;20108;-66
2023/07/21 12:26:48;;;;;;;2.72;1.80;;;23.90;94.10;;;;;;5031427;28;20614;-67
2023/07/21 12:29:15;;;;;;;5.57;1.98;;;23.80;94.10;;;;;;5032683;28;20049;-67
2023/07/21 12:31:42;;;;;;;5.72;2.42;;;23.80;94.30;;;;;;5015009;28;20054;-67
2023/07/21 12:34:08;;;;;;;4.18;2.35;;;23.50;95.00;;;;;;5031624;28;20045;-66
2023/07/21 12:36:35;;;;;;;4.47;2.55;;;23.20;95.30;;;;;;5035535;28;20189;-67
2023/07/21 12:39:03;;;;;;;3.17;2.30;;;23.10;94.80;;;;;;5039926;28;20110;-67
2023/07/21 12:41:30;;;;;;;4.05;2.10;;;23.00;94.50;;;;;;5052649;28;20076;-66
2023/07/21 12:43:56;;;;;;;3.63;2.05;;;23.00;94.50;;;;;;5018508;28;20102;-67
2023/07/21 12:46:23;;;;;;;5.32;2.10;;;23.00;94.50;;;;;;5014735;28;20053;-66
2023/07/21 12:48:49;;;;;;;4.20;2.08;;;22.80;94.50;;;;;;5032407;28;20477;-67
2023/07/21 12:51:15;;;;;;;3.85;2.28;;;22.60;95.10;;;;;;5031471;28;20053;-67